Terminal Aerodrome Forecast
Issued by NWS

Home | Current Version | Previous Version | Text Only | Print | Product List | Glossary On
Versions: 1 2 3 4 5 6 7 8 9 10 11 12 13 14 15 16
000
FTUS44 KLZK 260537
TAFLLQ
TAF
KLLQ 260537Z 2606/2706 17010KT P6SM BKN040
     FM261000 18012G18KT P6SM BKN015 OVC040 WS020/20040KT
     FM261600 19012G18KT P6SM VCSH SCT025 OVC040
      TEMPO 2618/2622 5SM -SHRA BR OVC015
     FM262200 24012G22KT 5SM -RA VCTS SCT015CB OVC035
      TEMPO 2622/2702 VRB25G40KT 1SM TSRA OVC015CB
     FM270200 30012G20KT P6SM -SHRA OVC015=

USA.gov is the U.S. government's official web portal to all federal, state and local government web resources and services.